createdAt,value
2023-03-12T00:00:43.252Z,1.5
2023-03-12T00:15:44.174Z,1.6
2023-03-12T00:30:45.125Z,1.6
2023-03-12T00:45:44.562Z,1.6
2023-03-12T01:00:55.193Z,1.5
2023-03-12T01:15:53.093Z,1.5
2023-03-12T01:30:54.820Z,1.5
2023-03-12T01:45:53.996Z,1.4
2023-03-12T02:00:55.226Z,1.4
2023-03-12T02:01:28.346Z,1.5
2023-03-12T02:15:54.519Z,1.5
2023-03-12T02:30:56.347Z,1.4
2023-03-12T02:45:54.684Z,1.1
2023-03-12T03:00:56.731Z,1
2023-03-12T03:15:54.767Z,0.9
2023-03-12T03:30:58.007Z,0.9
2023-03-12T03:45:59.986Z,1
2023-03-12T04:00:56.076Z,1
2023-03-12T04:15:55.356Z,1
2023-03-12T04:30:58.376Z,1.1
2023-03-12T04:45:55.789Z,1.1
2023-03-12T05:00:57.088Z,1.3
2023-03-12T05:15:56.621Z,1.4
2023-03-12T05:30:57.588Z,1.5
2023-03-12T05:44:07.496Z,1.6
2023-03-12T05:59:08.714Z,1.6
2023-03-12T06:14:08.672Z,1.6
2023-03-12T06:29:08.705Z,1.7
2023-03-12T06:44:09.421Z,2
2023-03-12T06:59:11.737Z,2.1
2023-03-12T07:14:13.343Z,2.1
2023-03-12T07:29:12.049Z,2.4
2023-03-12T07:44:12.861Z,2.7
2023-03-12T07:59:15.619Z,2.8
2023-03-12T08:14:17.178Z,2.8
2023-03-12T08:29:15.179Z,3.4
2023-03-12T08:44:18.287Z,3.4
2023-03-12T08:59:16.159Z,3.6
2023-03-12T09:15:05.503Z,3.6
2023-03-12T09:29:18.966Z,4.9
2023-03-12T09:44:42.708Z,4.9
2023-03-12T09:59:19.881Z,5.1
2023-03-12T10:14:24.681Z,5.4
2023-03-12T10:29:20.221Z,5.6
2023-03-12T10:44:22.406Z,5.6
2023-03-12T11:14:22.446Z,5.7
2023-03-12T11:29:22.661Z,6.9
2023-03-12T12:12:07.831Z,6.9
2023-03-12T12:14:27.476Z,6.9
2023-03-12T12:29:25.216Z,6.6
2023-03-12T14:00:16.357Z,6.6
2023-03-12T14:29:37.329Z,6.7
2023-03-12T15:59:55.257Z,7
2023-03-12T16:29:53.846Z,8.4
2023-03-12T18:00:10.592Z,8
2023-03-12T19:30:14.168Z,7.2
2023-03-12T20:59:52.196Z,7
2023-03-12T21:41:44.371Z,6.1
2023-03-12T21:44:55.686Z,6.1
2023-03-12T22:15:35.437Z,6.1
2023-03-12T22:29:54.894Z,5.9
2023-03-12T22:45:02.774Z,5.9
2023-03-12T23:00:11.126Z,5.8
2023-03-12T23:15:50.251Z,6.1
2023-03-12T23:30:49.688Z,6.2
2023-03-12T23:45:47.538Z,6.2
